Airfield :
LOGIN :

Register | Disclaimer

   EN    FR    IT 

 










Legend :    VFR   Marginal VFR   IFR   Intensive IFR   Very Intensive IFR
Visi :
Ceiling :
>= 8 km
>= 3000ft
5 to 8 km
1000 to 3000 ft
1500m to 5 km
500 to 1000 ft
800 to 1500m
200 to 500 ft
< 800m
< 200 ft
Symbols :   Thunderstorms  Fog  Heavy snow  Heavy precipitations  Wind > 20 kt
SIGMETs :     Misc.  Thunderstorms  Icing  Turbulence  Mountain Waves  Volcanic Ashes







- Airport Elevation : 461 ft
- IATA code : WIE


ETOU - Wiesbaden Army

CURRENT METAR :
  • 141756Z AUTO 19004KT 9999 BKN021 OVC027 03/02 A2937 RMK AO2 SLP953 60000 T00290019 10063 20023 57014 $

EXPIRED METARs :
  • 141746Z AUTO 18005KT 9999 BKN024 BKN029 BKN048 03/02 A2938 RMK AO2 CIG 024V048 BKN024 V SCT SLP957 $
  • 141656Z AUTO 27004KT 9999 BKN043 04/02 A2939 RMK AO2 SLP959 T00360020 $
  • 141616Z AUTO 26008KT 9999 SCT016 BKN035 04/02 A2940 RMK AO2 SLP963 $
  • 141556Z AUTO 26011KT 9999 BKN016 BKN022 OVC032 04/03 A2941 RMK AO2 RAE00RAB16E26 SLP966 P0000 T00420025 $
  • 141536Z AUTO 25009KT 9999 BKN015 OVC023 04/03 A2942 RMK AO2 RAE00RAB16E26 CIG 015V024 SLP970 $
  • 141526Z AUTO 25007KT 9999 SCT014 BKN024 OVC035 04/03 A2942 RMK AO2 RAE00RAB16E26 SLP970 $

TAF AMD TAF ETOU
Valid from the 14 at 13:00 until the 15 at 17:00 UTC


141352Z 1413/1517 24012KT 8000 -SHRA SCT015 BKN020 620408 QNH2938INS
TEMPO 1413/1417 24012G20KT
BECMG 1419/1420 22012KT 8000 -SHRA SCT020 BKN030 620309 QNH2932INS
BECMG 1501/1502 22009KT 9999 NSW FEW020 SCT025 QNH2938INS
BECMG 1506/1507 24012KT 8000 -SHRA SCT015 BKN020 610209 QNH2942INS TX07/1413Z TN02/1506Z
No reported NOTAMs for that airfield.
1 SIGMET reported for the Langen FIR (EDGG) :
 
Severe turbulence
EDGG SIGMET 3 VALID 141744/141930 EDZF
EDGG LANGEN FIR SEV TURB OBS S OF N4840 FL180/240 STNR NC=



MET'MAP, your aeronautical weather chart ! - Copyright ORBIFLY December 2007 - Disclaimer

ORBIFLY MET'MAP TEAM :

Programming & Development : Alexandra Zaïnal
Concept & Development : Baudouin d'Aumeries
Co-Development & Prog : Marc-Olivier Méhu
Technical & hardware support : Manuel Goepfert

Contact : metmap@orbifly.com




SOURCES & CREDITS :

   NOAA